sensor_id;sensor_type;location;lat;lon;timestamp;temperature;humidity
21387;DHT22;10854;45.922;6.716;2024-02-15T00:01:05;3.60;99.90
21387;DHT22;10854;45.922;6.716;2024-02-15T00:03:39;3.50;99.90
21387;DHT22;10854;45.922;6.716;2024-02-15T00:06:23;3.50;99.90
21387;DHT22;10854;45.922;6.716;2024-02-15T00:09:11;3.50;99.90
21387;DHT22;10854;45.922;6.716;2024-02-15T00:11:43;3.40;99.90
21387;DHT22;10854;45.922;6.716;2024-02-15T00:14:13;3.30;99.90
21387;DHT22;10854;45.922;6.716;2024-02-15T00:16:50;3.30;99.90
21387;DHT22;10854;45.922;6.716;2024-02-15T00:19:24;3.40;99.90
21387;DHT22;10854;45.922;6.716;2024-02-15T00:21:57;3.40;99.90
21387;DHT22;10854;45.922;6.716;2024-02-15T00:24:26;3.50;99.90
21387;DHT22;10854;45.922;6.716;2024-02-15T00:26:55;3.70;99.90
21387;DHT22;10854;45.922;6.716;2024-02-15T00:29:31;3.90;99.90
21387;DHT22;10854;45.922;6.716;2024-02-15T00:32:00;4.10;99.90
21387;DHT22;10854;45.922;6.716;2024-02-15T00:34:30;4.30;99.90
21387;DHT22;10854;45.922;6.716;2024-02-15T00:37:19;4.40;99.90
21387;DHT22;10854;45.922;6.716;2024-02-15T00:39:52;4.30;99.90
21387;DHT22;10854;45.922;6.716;2024-02-15T00:42:22;4.20;99.90
21387;DHT22;10854;45.922;6.716;2024-02-15T00:44:55;4.00;99.90
21387;DHT22;10854;45.922;6.716;2024-02-15T00:47:28;3.90;99.90
21387;DHT22;10854;45.922;6.716;2024-02-15T00:49:59;3.70;99.90
21387;DHT22;10854;45.922;6.716;2024-02-15T00:52:30;3.60;99.90
21387;DHT22;10854;45.922;6.716;2024-02-15T00:55:06;3.50;99.90
21387;DHT22;10854;45.922;6.716;2024-02-15T00:57:35;3.50;99.90
21387;DHT22;10854;45.922;6.716;2024-02-15T01:00:16;3.40;99.90
21387;DHT22;10854;45.922;6.716;2024-02-15T01:02:50;3.30;99.90
21387;DHT22;10854;45.922;6.716;2024-02-15T01:05:19;3.20;99.90
21387;DHT22;10854;45.922;6.716;2024-02-15T01:07:50;3.10;99.90
21387;DHT22;10854;45.922;6.716;2024-02-15T01:10:21;3.00;99.90
21387;DHT22;10854;45.922;6.716;2024-02-15T01:13:01;3.00;99.90
21387;DHT22;10854;45.922;6.716;2024-02-15T01:15:30;2.90;99.90
21387;DHT22;10854;45.922;6.716;2024-02-15T01:18:05;2.90;99.90
21387;DHT22;10854;45.922;6.716;2024-02-15T01:20:41;2.90;99.90
21387;DHT22;10854;45.922;6.716;2024-02-15T01:23:15;3.00;99.90
21387;DHT22;10854;45.922;6.716;2024-02-15T01:25:53;3.00;99.90
21387;DHT22;10854;45.922;6.716;2024-02-15T01:28:24;3.00;99.90
21387;DHT22;10854;45.922;6.716;2024-02-15T01:30:53;3.00;99.90
21387;DHT22;10854;45.922;6.716;2024-02-15T01:33:25;3.10;99.90
21387;DHT22;10854;45.922;6.716;2024-02-15T01:35:53;3.10;99.90
21387;DHT22;10854;45.922;6.716;2024-02-15T01:38:24;3.10;99.90
21387;DHT22;10854;45.922;6.716;2024-02-15T01:40:58;3.10;99.90
21387;DHT22;10854;45.922;6.716;2024-02-15T01:43:28;3.10;99.90
21387;DHT22;10854;45.922;6.716;2024-02-15T01:46:21;3.10;99.90
21387;DHT22;10854;45.922;6.716;2024-02-15T01:49:00;3.00;99.90
21387;DHT22;10854;45.922;6.716;2024-02-15T01:51:44;3.00;99.90
21387;DHT22;10854;45.922;6.716;2024-02-15T01:54:15;3.00;99.90
21387;DHT22;10854;45.922;6.716;2024-02-15T01:56:45;2.90;99.90
21387;DHT22;10854;45.922;6.716;2024-02-15T01:59:24;2.90;99.90
21387;DHT22;10854;45.922;6.716;2024-02-15T02:01:53;2.90;99.90
21387;DHT22;10854;45.922;6.716;2024-02-15T02:04:22;2.80;99.90
21387;DHT22;10854;45.922;6.716;2024-02-15T02:06:52;2.70;99.90
21387;DHT22;10854;45.922;6.716;2024-02-15T02:09:27;2.70;99.90
21387;DHT22;10854;45.922;6.716;2024-02-15T02:11:57;2.70;99.90
21387;DHT22;10854;45.922;6.716;2024-02-15T02:14:33;2.60;99.90
21387;DHT22;10854;45.922;6.716;2024-02-15T02:17:18;2.60;99.90
21387;DHT22;10854;45.922;6.716;2024-02-15T02:19:52;2.50;99.90
21387;DHT22;10854;45.922;6.716;2024-02-15T02:22:36;2.40;99.90
21387;DHT22;10854;45.922;6.716;2024-02-15T02:25:08;2.30;99.90
21387;DHT22;10854;45.922;6.716;2024-02-15T02:27:37;2.20;99.90
21387;DHT22;10854;45.922;6.716;2024-02-15T02:30:31;2.10;99.90
21387;DHT22;10854;45.922;6.716;2024-02-15T02:33:01;2.00;99.90
21387;DHT22;10854;45.922;6.716;2024-02-15T02:35:33;1.90;99.90
21387;DHT22;10854;45.922;6.716;2024-02-15T02:38:03;1.90;99.90
21387;DHT22;10854;45.922;6.716;2024-02-15T02:40:32;1.80;99.90
21387;DHT22;10854;45.922;6.716;2024-02-15T02:43:25;1.80;99.90
21387;DHT22;10854;45.922;6.716;2024-02-15T02:45:56;1.80;99.90
21387;DHT22;10854;45.922;6.716;2024-02-15T02:48:36;1.70;99.90
21387;DHT22;10854;45.922;6.716;2024-02-15T02:51:06;1.70;99.90
21387;DHT22;10854;45.922;6.716;2024-02-15T02:53:34;1.70;99.90
21387;DHT22;10854;45.922;6.716;2024-02-15T02:56:08;1.70;99.90
21387;DHT22;10854;45.922;6.716;2024-02-15T02:58:37;1.70;99.90
21387;DHT22;10854;45.922;6.716;2024-02-15T03:01:12;1.70;99.90
21387;DHT22;10854;45.922;6.716;2024-02-15T03:03:50;1.70;99.90
21387;DHT22;10854;45.922;6.716;2024-02-15T03:06:24;1.70;99.90
21387;DHT22;10854;45.922;6.716;2024-02-15T03:09:03;1.70;99.90
21387;DHT22;10854;45.922;6.716;2024-02-15T03:11:43;1.70;99.90
21387;DHT22;10854;45.922;6.716;2024-02-15T03:14:15;1.70;99.90
21387;DHT22;10854;45.922;6.716;2024-02-15T03:16:47;1.70;99.90
21387;DHT22;10854;45.922;6.716;2024-02-15T03:19:19;1.70;99.90
21387;DHT22;10854;45.922;6.716;2024-02-15T03:21:51;1.70;99.90
21387;DHT22;10854;45.922;6.716;2024-02-15T03:24:21;1.70;99.90
21387;DHT22;10854;45.922;6.716;2024-02-15T03:26:52;1.70;99.90
21387;DHT22;10854;45.922;6.716;2024-02-15T03:29:25;1.70;99.90
21387;DHT22;10854;45.922;6.716;2024-02-15T03:32:07;1.60;99.90
21387;DHT22;10854;45.922;6.716;2024-02-15T03:34:59;1.70;99.90
21387;DHT22;10854;45.922;6.716;2024-02-15T03:37:33;1.70;99.90
21387;DHT22;10854;45.922;6.716;2024-02-15T03:40:08;1.70;99.90
21387;DHT22;10854;45.922;6.716;2024-02-15T03:42:50;1.70;99.90
21387;DHT22;10854;45.922;6.716;2024-02-15T03:45:22;1.70;99.90
21387;DHT22;10854;45.922;6.716;2024-02-15T03:47:55;1.60;99.90
21387;DHT22;10854;45.922;6.716;2024-02-15T03:50:30;1.60;99.90
21387;DHT22;10854;45.922;6.716;2024-02-15T03:53:09;1.60;99.90
21387;DHT22;10854;45.922;6.716;2024-02-15T03:55:46;1.60;99.90
21387;DHT22;10854;45.922;6.716;2024-02-15T03:58:16;1.60;99.90
21387;DHT22;10854;45.922;6.716;2024-02-15T04:00:55;1.60;99.90
21387;DHT22;10854;45.922;6.716;2024-02-15T04:03:29;1.60;99.90
21387;DHT22;10854;45.922;6.716;2024-02-15T04:06:03;1.50;99.90
21387;DHT22;10854;45.922;6.716;2024-02-15T04:08:33;1.50;99.90
21387;DHT22;10854;45.922;6.716;2024-02-15T04:11:05;1.50;99.90
21387;DHT22;10854;45.922;6.716;2024-02-15T04:13:38;1.50;99.90
21387;DHT22;10854;45.922;6.716;2024-02-15T04:16:23;1.40;99.90
21387;DHT22;10854;45.922;6.716;2024-02-15T04:18:56;1.40;99.90
21387;DHT22;10854;45.922;6.716;2024-02-15T04:21:28;1.30;99.90
21387;DHT22;10854;45.922;6.716;2024-02-15T04:24:07;1.30;99.90
21387;DHT22;10854;45.922;6.716;2024-02-15T04:26:39;1.20;99.90
21387;DHT22;10854;45.922;6.716;2024-02-15T04:29:22;1.20;99.90
21387;DHT22;10854;45.922;6.716;2024-02-15T04:32:05;1.20;99.90
21387;DHT22;10854;45.922;6.716;2024-02-15T04:34:44;1.20;99.90
21387;DHT22;10854;45.922;6.716;2024-02-15T04:37:14;1.20;99.90
21387;DHT22;10854;45.922;6.716;2024-02-15T04:39:48;1.10;99.90
21387;DHT22;10854;45.922;6.716;2024-02-15T04:42:21;1.10;99.90
21387;DHT22;10854;45.922;6.716;2024-02-15T04:45:00;1.00;99.90
21387;DHT22;10854;45.922;6.716;2024-02-15T04:47:31;1.00;99.90
21387;DHT22;10854;45.922;6.716;2024-02-15T04:50:05;1.00;99.90
21387;DHT22;10854;45.922;6.716;2024-02-15T04:53:04;1.00;99.90
21387;DHT22;10854;45.922;6.716;2024-02-15T04:55:38;1.00;99.90
21387;DHT22;10854;45.922;6.716;2024-02-15T04:58:09;1.00;99.90
21387;DHT22;10854;45.922;6.716;2024-02-15T05:00:39;1.00;99.90
21387;DHT22;10854;45.922;6.716;2024-02-15T05:03:11;1.00;99.90
21387;DHT22;10854;45.922;6.716;2024-02-15T05:05:46;1.10;99.90
21387;DHT22;10854;45.922;6.716;2024-02-15T05:08:20;1.20;99.90
21387;DHT22;10854;45.922;6.716;2024-02-15T05:11:19;1.20;99.90
21387;DHT22;10854;45.922;6.716;2024-02-15T05:13:49;1.20;99.90
21387;DHT22;10854;45.922;6.716;2024-02-15T05:16:21;1.30;99.90
21387;DHT22;10854;45.922;6.716;2024-02-15T05:18:53;1.30;99.90
21387;DHT22;10854;45.922;6.716;2024-02-15T05:21:32;1.30;99.90
21387;DHT22;10854;45.922;6.716;2024-02-15T05:24:14;1.30;99.90
21387;DHT22;10854;45.922;6.716;2024-02-15T05:26:49;1.30;99.90
21387;DHT22;10854;45.922;6.716;2024-02-15T05:29:23;1.30;99.90
21387;DHT22;10854;45.922;6.716;2024-02-15T05:31:53;1.30;99.90
21387;DHT22;10854;45.922;6.716;2024-02-15T05:34:23;1.30;99.90
21387;DHT22;10854;45.922;6.716;2024-02-15T05:36:58;1.30;99.90
21387;DHT22;10854;45.922;6.716;2024-02-15T05:39:36;1.30;99.90
21387;DHT22;10854;45.922;6.716;2024-02-15T05:42:09;1.30;99.90
21387;DHT22;10854;45.922;6.716;2024-02-15T05:44:44;1.20;99.90
21387;DHT22;10854;45.922;6.716;2024-02-15T05:47:34;1.20;99.90
21387;DHT22;10854;45.922;6.716;2024-02-15T05:50:05;1.20;99.90
21387;DHT22;10854;45.922;6.716;2024-02-15T05:52:45;1.20;99.90
21387;DHT22;10854;45.922;6.716;2024-02-15T05:55:18;1.20;99.90
21387;DHT22;10854;45.922;6.716;2024-02-15T05:57:53;1.20;99.90
21387;DHT22;10854;45.922;6.716;2024-02-15T06:00:25;1.30;99.90
21387;DHT22;10854;45.922;6.716;2024-02-15T06:02:57;1.40;99.90
21387;DHT22;10854;45.922;6.716;2024-02-15T06:05:27;1.40;99.90
21387;DHT22;10854;45.922;6.716;2024-02-15T06:08:06;1.40;99.90
21387;DHT22;10854;45.922;6.716;2024-02-15T06:10:44;1.50;99.90
21387;DHT22;10854;45.922;6.716;2024-02-15T06:13:19;1.50;99.90
21387;DHT22;10854;45.922;6.716;2024-02-15T06:16:06;1.60;99.90
21387;DHT22;10854;45.922;6.716;2024-02-15T06:18:40;1.70;99.90
21387;DHT22;10854;45.922;6.716;2024-02-15T06:21:19;1.80;99.90
21387;DHT22;10854;45.922;6.716;2024-02-15T06:23:49;1.90;99.90
21387;DHT22;10854;45.922;6.716;2024-02-15T06:26:43;2.00;99.90
21387;DHT22;10854;45.922;6.716;2024-02-15T06:29:18;2.10;99.90
21387;DHT22;10854;45.922;6.716;2024-02-15T06:32:11;2.20;99.90
21387;DHT22;10854;45.922;6.716;2024-02-15T06:34:58;2.30;99.90
21387;DHT22;10854;45.922;6.716;2024-02-15T06:37:46;2.30;99.90
21387;DHT22;10854;45.922;6.716;2024-02-15T06:40:35;2.40;99.90
21387;DHT22;10854;45.922;6.716;2024-02-15T06:43:14;2.50;99.90
21387;DHT22;10854;45.922;6.716;2024-02-15T06:45:46;2.60;99.90
21387;DHT22;10854;45.922;6.716;2024-02-15T06:48:22;2.70;99.90
21387;DHT22;10854;45.922;6.716;2024-02-15T06:50:52;2.70;99.90
21387;DHT22;10854;45.922;6.716;2024-02-15T06:53:22;2.80;99.90
21387;DHT22;10854;45.922;6.716;2024-02-15T06:56:10;2.80;99.90
21387;DHT22;10854;45.922;6.716;2024-02-15T06:58:56;2.90;99.90
21387;DHT22;10854;45.922;6.716;2024-02-15T07:01:29;3.00;99.90
21387;DHT22;10854;45.922;6.716;2024-02-15T07:03:58;3.00;99.90
21387;DHT22;10854;45.922;6.716;2024-02-15T07:06:27;3.10;99.90
21387;DHT22;10854;45.922;6.716;2024-02-15T07:08:59;3.20;99.90
21387;DHT22;10854;45.922;6.716;2024-02-15T07:11:27;3.20;99.90
21387;DHT22;10854;45.922;6.716;2024-02-15T07:13:56;3.40;99.90
21387;DHT22;10854;45.922;6.716;2024-02-15T07:16:25;3.40;99.90
21387;DHT22;10854;45.922;6.716;2024-02-15T07:18:53;3.50;99.90
21387;DHT22;10854;45.922;6.716;2024-02-15T07:21:22;3.70;99.90
21387;DHT22;10854;45.922;6.716;2024-02-15T07:23:55;3.90;99.90
21387;DHT22;10854;45.922;6.716;2024-02-15T07:26:24;4.10;99.90
21387;DHT22;10854;45.922;6.716;2024-02-15T07:28:56;4.30;99.90
21387;DHT22;10854;45.922;6.716;2024-02-15T07:31:28;4.40;99.90
21387;DHT22;10854;45.922;6.716;2024-02-15T07:33:57;4.50;99.90
21387;DHT22;10854;45.922;6.716;2024-02-15T07:36:27;4.70;99.90
21387;DHT22;10854;45.922;6.716;2024-02-15T07:38:56;4.90;99.90
21387;DHT22;10854;45.922;6.716;2024-02-15T07:41:28;5.10;99.90
21387;DHT22;10854;45.922;6.716;2024-02-15T07:43:57;5.30;99.90
21387;DHT22;10854;45.922;6.716;2024-02-15T07:46:26;5.50;99.90
21387;DHT22;10854;45.922;6.716;2024-02-15T07:49:12;5.70;99.90
21387;DHT22;10854;45.922;6.716;2024-02-15T07:51:41;5.80;99.90
21387;DHT22;10854;45.922;6.716;2024-02-15T07:54:10;5.90;99.90
21387;DHT22;10854;45.922;6.716;2024-02-15T07:56:39;6.00;99.90
21387;DHT22;10854;45.922;6.716;2024-02-15T07:59:08;6.10;99.90
21387;DHT22;10854;45.922;6.716;2024-02-15T08:01:36;6.10;99.90
21387;DHT22;10854;45.922;6.716;2024-02-15T08:04:08;6.20;99.90
21387;DHT22;10854;45.922;6.716;2024-02-15T08:06:41;6.20;99.90
21387;DHT22;10854;45.922;6.716;2024-02-15T08:09:12;6.30;99.90
21387;DHT22;10854;45.922;6.716;2024-02-15T08:11:42;6.30;99.90
21387;DHT22;10854;45.922;6.716;2024-02-15T08:14:10;6.30;99.90
21387;DHT22;10854;45.922;6.716;2024-02-15T08:16:40;6.40;99.30
21387;DHT22;10854;45.922;6.716;2024-02-15T08:19:11;6.50;99.00
21387;DHT22;10854;45.922;6.716;2024-02-15T08:21:40;6.50;98.50
21387;DHT22;10854;45.922;6.716;2024-02-15T08:24:10;6.60;98.30
21387;DHT22;10854;45.922;6.716;2024-02-15T08:26:39;6.70;98.00
21387;DHT22;10854;45.922;6.716;2024-02-15T08:29:09;6.80;97.60
21387;DHT22;10854;45.922;6.716;2024-02-15T08:31:37;6.90;97.40
21387;DHT22;10854;45.922;6.716;2024-02-15T08:34:06;7.00;97.30
21387;DHT22;10854;45.922;6.716;2024-02-15T08:36:39;7.10;97.10
21387;DHT22;10854;45.922;6.716;2024-02-15T08:39:07;7.30;96.80
21387;DHT22;10854;45.922;6.716;2024-02-15T08:41:39;7.40;96.20
21387;DHT22;10854;45.922;6.716;2024-02-15T08:44:08;7.50;95.80
21387;DHT22;10854;45.922;6.716;2024-02-15T08:46:40;7.60;95.50
21387;DHT22;10854;45.922;6.716;2024-02-15T08:49:08;7.70;94.90
21387;DHT22;10854;45.922;6.716;2024-02-15T08:51:40;7.70;94.50
21387;DHT22;10854;45.922;6.716;2024-02-15T08:54:09;7.70;94.10
21387;DHT22;10854;45.922;6.716;2024-02-15T08:56:37;7.60;93.90
21387;DHT22;10854;45.922;6.716;2024-02-15T08:59:14;7.60;93.70
21387;DHT22;10854;45.922;6.716;2024-02-15T09:01:46;7.50;93.50
21387;DHT22;10854;45.922;6.716;2024-02-15T09:04:19;7.40;93.30
21387;DHT22;10854;45.922;6.716;2024-02-15T09:06:58;7.40;93.20
21387;DHT22;10854;45.922;6.716;2024-02-15T09:09:45;7.40;93.30
21387;DHT22;10854;45.922;6.716;2024-02-15T09:12:16;7.40;93.30
21387;DHT22;10854;45.922;6.716;2024-02-15T09:14:47;7.50;93.40
21387;DHT22;10854;45.922;6.716;2024-02-15T09:17:30;7.90;93.70
21387;DHT22;10854;45.922;6.716;2024-02-15T09:20:09;8.20;93.30
21387;DHT22;10854;45.922;6.716;2024-02-15T09:23:04;8.40;92.60
21387;DHT22;10854;45.922;6.716;2024-02-15T09:25:50;8.70;92.10
21387;DHT22;10854;45.922;6.716;2024-02-15T09:28:33;9.20;92.10
21387;DHT22;10854;45.922;6.716;2024-02-15T09:31:18;9.90;91.90
21387;DHT22;10854;45.922;6.716;2024-02-15T09:33:53;10.70;89.30
21387;DHT22;10854;45.922;6.716;2024-02-15T09:36:28;11.20;84.70
21387;DHT22;10854;45.922;6.716;2024-02-15T09:39:11;11.60;81.90
21387;DHT22;10854;45.922;6.716;2024-02-15T09:41:43;12.10;78.60
21387;DHT22;10854;45.922;6.716;2024-02-15T09:44:24;12.50;76.70
21387;DHT22;10854;45.922;6.716;2024-02-15T09:47:37;13.10;73.90
21387;DHT22;10854;45.922;6.716;2024-02-15T09:50:27;13.80;71.70
21387;DHT22;10854;45.922;6.716;2024-02-15T09:53:09;14.50;68.20
21387;DHT22;10854;45.922;6.716;2024-02-15T09:55:53;15.00;66.40
21387;DHT22;10854;45.922;6.716;2024-02-15T09:58:37;15.40;63.80
21387;DHT22;10854;45.922;6.716;2024-02-15T10:01:34;15.70;61.30
21387;DHT22;10854;45.922;6.716;2024-02-15T10:04:11;15.90;59.80
21387;DHT22;10854;45.922;6.716;2024-02-15T10:06:45;16.00;58.60
21387;DHT22;10854;45.922;6.716;2024-02-15T10:09:27;16.20;57.80
21387;DHT22;10854;45.922;6.716;2024-02-15T10:12:22;16.40;56.50
21387;DHT22;10854;45.922;6.716;2024-02-15T10:15:39;16.70;56.30
21387;DHT22;10854;45.922;6.716;2024-02-15T10:18:15;17.10;54.70
21387;DHT22;10854;45.922;6.716;2024-02-15T10:20:57;17.30;54.60
21387;DHT22;10854;45.922;6.716;2024-02-15T10:23:37;17.50;53.30
21387;DHT22;10854;45.922;6.716;2024-02-15T10:26:29;17.60;52.30
21387;DHT22;10854;45.922;6.716;2024-02-15T10:29:24;17.50;51.30
21387;DHT22;10854;45.922;6.716;2024-02-15T10:31:59;17.60;52.00
21387;DHT22;10854;45.922;6.716;2024-02-15T10:34:34;17.70;51.50
21387;DHT22;10854;45.922;6.716;2024-02-15T10:37:29;17.90;51.50
21387;DHT22;10854;45.922;6.716;2024-02-15T10:40:11;18.30;51.40
21387;DHT22;10854;45.922;6.716;2024-02-15T10:42:43;18.50;50.80
21387;DHT22;10854;45.922;6.716;2024-02-15T10:45:15;18.60;50.70
21387;DHT22;10854;45.922;6.716;2024-02-15T10:47:46;18.80;50.70
21387;DHT22;10854;45.922;6.716;2024-02-15T10:50:16;19.10;50.30
21387;DHT22;10854;45.922;6.716;2024-02-15T10:53:00;19.10;49.70
21387;DHT22;10854;45.922;6.716;2024-02-15T10:55:38;19.10;48.80
21387;DHT22;10854;45.922;6.716;2024-02-15T10:58:11;19.00;49.20
21387;DHT22;10854;45.922;6.716;2024-02-15T11:00:42;18.90;49.60
21387;DHT22;10854;45.922;6.716;2024-02-15T11:03:19;18.90;49.50
21387;DHT22;10854;45.922;6.716;2024-02-15T11:05:58;18.90;49.00
21387;DHT22;10854;45.922;6.716;2024-02-15T11:08:31;18.70;48.80
21387;DHT22;10854;45.922;6.716;2024-02-15T11:11:02;18.60;48.80
21387;DHT22;10854;45.922;6.716;2024-02-15T11:13:35;18.50;48.70
21387;DHT22;10854;45.922;6.716;2024-02-15T11:16:03;18.30;48.80
21387;DHT22;10854;45.922;6.716;2024-02-15T11:18:46;18.00;49.60
21387;DHT22;10854;45.922;6.716;2024-02-15T11:21:55;17.80;49.00
21387;DHT22;10854;45.922;6.716;2024-02-15T11:24:30;17.60;49.10
21387;DHT22;10854;45.922;6.716;2024-02-15T11:27:05;17.30;49.60
21387;DHT22;10854;45.922;6.716;2024-02-15T11:29:55;17.20;49.90
21387;DHT22;10854;45.922;6.716;2024-02-15T11:32:41;17.00;50.10
21387;DHT22;10854;45.922;6.716;2024-02-15T11:35:19;16.90;50.10
21387;DHT22;10854;45.922;6.716;2024-02-15T11:40:29;16.50;50.50
21387;DHT22;10854;45.922;6.716;2024-02-15T11:46:18;16.20;50.40
21387;DHT22;10854;45.922;6.716;2024-02-15T11:48:51;16.30;51.00
21387;DHT22;10854;45.922;6.716;2024-02-15T11:51:36;16.50;50.70
21387;DHT22;10854;45.922;6.716;2024-02-15T11:54:11;16.70;50.50
21387;DHT22;10854;45.922;6.716;2024-02-15T11:59:13;17.30;50.40
21387;DHT22;10854;45.922;6.716;2024-02-15T12:01:59;17.70;50.30
21387;DHT22;10854;45.922;6.716;2024-02-15T12:04:46;18.10;50.10
21387;DHT22;10854;45.922;6.716;2024-02-15T12:07:33;18.50;49.70
21387;DHT22;10854;45.922;6.716;2024-02-15T12:10:23;18.90;49.30
21387;DHT22;10854;45.922;6.716;2024-02-15T12:13:09;19.20;48.80
21387;DHT22;10854;45.922;6.716;2024-02-15T12:15:59;19.40;48.10
21387;DHT22;10854;45.922;6.716;2024-02-15T12:18:49;19.60;47.40
21387;DHT22;10854;45.922;6.716;2024-02-15T12:21:27;19.80;46.90
21387;DHT22;10854;45.922;6.716;2024-02-15T12:24:06;20.20;45.90
21387;DHT22;10854;45.922;6.716;2024-02-15T12:26:35;20.40;44.90
21387;DHT22;10854;45.922;6.716;2024-02-15T12:29:03;20.60;44.50
21387;DHT22;10854;45.922;6.716;2024-02-15T12:31:44;20.60;44.20
21387;DHT22;10854;45.922;6.716;2024-02-15T12:34:39;20.50;43.60
21387;DHT22;10854;45.922;6.716;2024-02-15T12:37:10;20.40;43.40
21387;DHT22;10854;45.922;6.716;2024-02-15T12:39:38;20.40;43.90
21387;DHT22;10854;45.922;6.716;2024-02-15T12:42:07;20.50;44.00
21387;DHT22;10854;45.922;6.716;2024-02-15T12:44:45;20.60;43.60
21387;DHT22;10854;45.922;6.716;2024-02-15T12:47:21;20.40;43.40
21387;DHT22;10854;45.922;6.716;2024-02-15T12:49:50;20.30;44.00
21387;DHT22;10854;45.922;6.716;2024-02-15T12:52:35;20.20;44.50
21387;DHT22;10854;45.922;6.716;2024-02-15T12:55:11;20.10;44.40
21387;DHT22;10854;45.922;6.716;2024-02-15T12:57:45;19.90;45.00
21387;DHT22;10854;45.922;6.716;2024-02-15T13:00:20;19.60;46.00
21387;DHT22;10854;45.922;6.716;2024-02-15T13:02:51;19.40;46.60
21387;DHT22;10854;45.922;6.716;2024-02-15T13:05:21;19.30;47.10
21387;DHT22;10854;45.922;6.716;2024-02-15T13:07:54;19.20;47.50
21387;DHT22;10854;45.922;6.716;2024-02-15T13:10:46;19.00;48.30
21387;DHT22;10854;45.922;6.716;2024-02-15T13:13:16;19.00;47.90
21387;DHT22;10854;45.922;6.716;2024-02-15T13:15:46;19.00;48.00
21387;DHT22;10854;45.922;6.716;2024-02-15T13:18:17;18.90;48.20
21387;DHT22;10854;45.922;6.716;2024-02-15T13:20:46;18.90;48.40
21387;DHT22;10854;45.922;6.716;2024-02-15T13:23:18;19.00;48.80
21387;DHT22;10854;45.922;6.716;2024-02-15T13:25:51;18.90;49.30
21387;DHT22;10854;45.922;6.716;2024-02-15T13:28:20;18.80;49.80
21387;DHT22;10854;45.922;6.716;2024-02-15T13:30:48;18.70;50.00
21387;DHT22;10854;45.922;6.716;2024-02-15T13:33:17;18.40;50.10
21387;DHT22;10854;45.922;6.716;2024-02-15T13:36:11;18.20;50.30
21387;DHT22;10854;45.922;6.716;2024-02-15T13:39:09;18.00;49.90
21387;DHT22;10854;45.922;6.716;2024-02-15T13:41:38;17.70;49.90
21387;DHT22;10854;45.922;6.716;2024-02-15T13:44:06;17.60;49.30
21387;DHT22;10854;45.922;6.716;2024-02-15T13:46:35;17.50;49.40
21387;DHT22;10854;45.922;6.716;2024-02-15T13:49:04;17.60;49.50
21387;DHT22;10854;45.922;6.716;2024-02-15T13:51:32;17.60;49.50
21387;DHT22;10854;45.922;6.716;2024-02-15T13:54:03;17.70;49.70
21387;DHT22;10854;45.922;6.716;2024-02-15T13:56:31;17.80;49.70
21387;DHT22;10854;45.922;6.716;2024-02-15T13:59:00;17.80;49.40
21387;DHT22;10854;45.922;6.716;2024-02-15T14:01:32;17.80;49.20
21387;DHT22;10854;45.922;6.716;2024-02-15T14:04:02;17.70;48.90
21387;DHT22;10854;45.922;6.716;2024-02-15T14:06:30;17.60;49.30
21387;DHT22;10854;45.922;6.716;2024-02-15T14:09:01;17.40;49.40
21387;DHT22;10854;45.922;6.716;2024-02-15T14:11:29;17.20;49.40
21387;DHT22;10854;45.922;6.716;2024-02-15T14:14:00;17.10;49.50
21387;DHT22;10854;45.922;6.716;2024-02-15T14:16:31;17.00;49.40
21387;DHT22;10854;45.922;6.716;2024-02-15T14:19:00;17.00;49.50
21387;DHT22;10854;45.922;6.716;2024-02-15T14:21:33;16.90;49.60
21387;DHT22;10854;45.922;6.716;2024-02-15T14:24:08;16.90;49.80
21387;DHT22;10854;45.922;6.716;2024-02-15T14:26:39;16.80;50.10
21387;DHT22;10854;45.922;6.716;2024-02-15T14:29:10;16.90;50.20
21387;DHT22;10854;45.922;6.716;2024-02-15T14:31:43;16.80;49.90
21387;DHT22;10854;45.922;6.716;2024-02-15T14:34:31;16.80;49.80
21387;DHT22;10854;45.922;6.716;2024-02-15T14:37:00;16.80;50.00
21387;DHT22;10854;45.922;6.716;2024-02-15T14:39:34;16.90;50.40
21387;DHT22;10854;45.922;6.716;2024-02-15T14:42:13;16.90;50.30
21387;DHT22;10854;45.922;6.716;2024-02-15T14:44:45;17.00;50.40
21387;DHT22;10854;45.922;6.716;2024-02-15T14:47:23;17.00;50.40
21387;DHT22;10854;45.922;6.716;2024-02-15T14:49:57;16.90;50.40
21387;DHT22;10854;45.922;6.716;2024-02-15T14:52:27;16.80;51.00
21387;DHT22;10854;45.922;6.716;2024-02-15T14:54:59;16.80;50.40
21387;DHT22;10854;45.922;6.716;2024-02-15T14:57:36;16.70;50.20
21387;DHT22;10854;45.922;6.716;2024-02-15T15:00:07;16.60;50.10
21387;DHT22;10854;45.922;6.716;2024-02-15T15:02:44;16.50;50.20
21387;DHT22;10854;45.922;6.716;2024-02-15T15:05:19;16.40;50.40
21387;DHT22;10854;45.922;6.716;2024-02-15T15:08:09;16.20;50.20
21387;DHT22;10854;45.922;6.716;2024-02-15T15:11:18;16.10;49.90
21387;DHT22;10854;45.922;6.716;2024-02-15T15:14:06;15.90;50.70
21387;DHT22;10854;45.922;6.716;2024-02-15T15:16:35;15.70;50.30
21387;DHT22;10854;45.922;6.716;2024-02-15T15:19:07;15.60;50.90
21387;DHT22;10854;45.922;6.716;2024-02-15T15:21:38;15.50;51.20
21387;DHT22;10854;45.922;6.716;2024-02-15T15:24:08;15.50;51.50
21387;DHT22;10854;45.922;6.716;2024-02-15T15:26:45;15.40;51.60
21387;DHT22;10854;45.922;6.716;2024-02-15T15:29:15;15.40;51.90
21387;DHT22;10854;45.922;6.716;2024-02-15T15:31:46;15.30;52.10
21387;DHT22;10854;45.922;6.716;2024-02-15T15:34:14;15.30;52.20
21387;DHT22;10854;45.922;6.716;2024-02-15T15:36:47;15.30;52.50
21387;DHT22;10854;45.922;6.716;2024-02-15T15:39:21;15.30;52.40
21387;DHT22;10854;45.922;6.716;2024-02-15T15:41:53;15.40;52.60
21387;DHT22;10854;45.922;6.716;2024-02-15T15:44:21;15.50;52.60
21387;DHT22;10854;45.922;6.716;2024-02-15T15:46:50;15.50;52.50
21387;DHT22;10854;45.922;6.716;2024-02-15T15:49:28;15.50;52.60
21387;DHT22;10854;45.922;6.716;2024-02-15T15:52:03;15.50;52.50
21387;DHT22;10854;45.922;6.716;2024-02-15T15:54:36;15.50;52.50
21387;DHT22;10854;45.922;6.716;2024-02-15T15:57:10;15.40;52.60
21387;DHT22;10854;45.922;6.716;2024-02-15T15:59:41;15.30;53.10
21387;DHT22;10854;45.922;6.716;2024-02-15T16:02:22;15.20;53.60
21387;DHT22;10854;45.922;6.716;2024-02-15T16:04:53;15.00;53.90
21387;DHT22;10854;45.922;6.716;2024-02-15T16:07:36;14.90;54.30
21387;DHT22;10854;45.922;6.716;2024-02-15T16:10:31;14.80;54.40
21387;DHT22;10854;45.922;6.716;2024-02-15T16:13:01;14.70;54.80
21387;DHT22;10854;45.922;6.716;2024-02-15T16:15:33;14.50;55.20
21387;DHT22;10854;45.922;6.716;2024-02-15T16:18:02;14.40;55.50
21387;DHT22;10854;45.922;6.716;2024-02-15T16:20:30;14.20;55.80
21387;DHT22;10854;45.922;6.716;2024-02-15T16:23:04;14.10;56.10
21387;DHT22;10854;45.922;6.716;2024-02-15T16:25:33;14.00;57.00
21387;DHT22;10854;45.922;6.716;2024-02-15T16:28:04;13.80;57.70
21387;DHT22;10854;45.922;6.716;2024-02-15T16:30:43;13.60;58.20
21387;DHT22;10854;45.922;6.716;2024-02-15T16:33:12;13.40;58.70
21387;DHT22;10854;45.922;6.716;2024-02-15T16:35:41;13.20;59.30
21387;DHT22;10854;45.922;6.716;2024-02-15T16:38:09;13.00;60.00
21387;DHT22;10854;45.922;6.716;2024-02-15T16:40:38;12.80;60.50